createdAt,value
2023-01-23T00:01:42.416Z,16.15
2023-01-23T00:04:14.172Z,15.30
2023-01-23T00:06:42.644Z,18.20
2023-01-23T00:09:11.278Z,16.25
2023-01-23T00:11:40.773Z,18.77
2023-01-23T00:14:08.935Z,18.60
2023-01-23T00:16:37.992Z,17.37
2023-01-23T00:19:06.106Z,18.53
2023-01-23T00:21:35.115Z,16.30
2023-01-23T00:24:03.695Z,18.40
2023-01-23T00:26:33.849Z,18.80
2023-01-23T00:29:05.924Z,17.52
2023-01-23T00:31:36.187Z,17.52
2023-01-23T00:34:06.829Z,16.53
2023-01-23T00:36:37.744Z,17.53
2023-01-23T00:39:13.198Z,17.73
2023-01-23T00:41:42.297Z,18.02
2023-01-23T00:44:11.865Z,19.30
2023-01-23T00:46:40.325Z,18.73
2023-01-23T00:49:11.537Z,18.43
2023-01-23T00:51:39.714Z,17.30
2023-01-23T00:54:07.888Z,18.00
2023-01-23T00:56:36.427Z,17.20
2023-01-23T00:59:05.465Z,17.13
2023-01-23T01:01:35.332Z,18.63
2023-01-23T01:04:03.618Z,17.07
2023-01-23T01:06:32.156Z,17.10
2023-01-23T01:09:00.861Z,19.03
2023-01-23T01:11:29.006Z,21.10
2023-01-23T01:13:57.182Z,18.13
2023-01-23T01:16:26.662Z,20.13
2023-01-23T01:18:56.359Z,20.05
2023-01-23T01:21:24.634Z,17.80
2023-01-23T01:23:55.582Z,20.43
2023-01-23T01:26:26.194Z,19.33
2023-01-23T01:28:55.105Z,21.40
2023-01-23T01:31:24.492Z,20.27
2023-01-23T01:33:52.923Z,19.00
2023-01-23T01:36:25.391Z,19.83
2023-01-23T01:38:54.697Z,18.40
2023-01-23T01:41:22.947Z,19.35
2023-01-23T01:43:53.340Z,18.87
2023-01-23T01:46:23.662Z,17.90
2023-01-23T01:49:08.014Z,23.38
2023-01-23T01:51:42.103Z,23.47
2023-01-23T01:54:17.734Z,24.67
2023-01-23T01:56:50.249Z,20.92
2023-01-23T01:59:20.157Z,22.23
2023-01-23T02:01:54.112Z,20.50
2023-01-23T02:04:23.336Z,19.07
2023-01-23T02:06:55.077Z,21.40
2023-01-23T02:09:27.203Z,19.40
2023-01-23T02:11:55.770Z,20.93
2023-01-23T02:14:25.733Z,23.93
2023-01-23T02:16:56.193Z,23.60
2023-01-23T02:19:41.415Z,22.57
2023-01-23T02:22:20.978Z,21.83
2023-01-23T02:24:57.601Z,21.63
2023-01-23T02:27:27.165Z,25.40
2023-01-23T02:29:56.302Z,23.97
2023-01-23T02:32:25.260Z,24.33
2023-01-23T02:34:56.030Z,23.17
2023-01-23T02:37:28.005Z,19.13
2023-01-23T02:39:56.439Z,17.47
2023-01-23T02:42:26.683Z,20.97
2023-01-23T02:44:56.001Z,18.87
2023-01-23T02:47:25.650Z,24.85
2023-01-23T02:49:53.734Z,21.07
2023-01-23T02:52:23.805Z,23.27
2023-01-23T02:54:52.087Z,55.23
2023-01-23T02:57:20.356Z,22.33
2023-01-23T03:00:03.922Z,21.13
2023-01-23T03:02:33.301Z,22.83
2023-01-23T03:05:01.854Z,59.47
2023-01-23T03:07:30.196Z,27.37
2023-01-23T03:09:59.191Z,28.65
2023-01-23T03:12:27.491Z,29.17
2023-01-23T03:14:58.720Z,23.75
2023-01-23T03:17:28.793Z,100.50
2023-01-23T03:19:57.813Z,25.57
2023-01-23T03:22:26.576Z,53.88
2023-01-23T03:24:56.072Z,88.63
2023-01-23T03:27:24.174Z,37.88
2023-01-23T03:30:09.606Z,37.70
2023-01-23T03:32:40.488Z,53.33
2023-01-23T03:35:13.952Z,51.30
2023-01-23T03:37:42.466Z,79.38
2023-01-23T03:40:34.349Z,30.13
2023-01-23T03:43:04.270Z,47.73
2023-01-23T03:45:32.857Z,32.83
2023-01-23T03:48:02.468Z,88.17
2023-01-23T03:50:30.680Z,30.48
2023-01-23T03:52:59.197Z,36.20
2023-01-23T03:55:27.408Z,25.77
2023-01-23T03:57:55.890Z,24.00
2023-01-23T04:00:24.259Z,44.10
2023-01-23T04:02:52.418Z,24.05
2023-01-23T04:05:22.009Z,28.10
2023-01-23T04:07:50.162Z,37.30
2023-01-23T04:10:19.138Z,33.33
2023-01-23T04:12:47.434Z,26.23
2023-01-23T04:15:16.076Z,36.35
2023-01-23T04:17:44.491Z,28.03
2023-01-23T04:20:13.389Z,34.08
2023-01-23T04:22:43.128Z,21.80
2023-01-23T04:25:12.393Z,24.33
2023-01-23T04:27:40.414Z,24.27
2023-01-23T04:30:10.980Z,26.02
2023-01-23T04:32:40.290Z,24.77
2023-01-23T04:35:09.827Z,22.02
2023-01-23T04:37:38.514Z,22.63
2023-01-23T04:40:11.439Z,21.50
2023-01-23T04:42:41.218Z,23.30
2023-01-23T04:45:11.056Z,22.63
2023-01-23T04:47:39.650Z,23.23
2023-01-23T04:50:08.325Z,22.42
2023-01-23T04:52:36.711Z,22.65
2023-01-23T04:55:05.774Z,19.80
2023-01-23T04:57:36.600Z,26.50
2023-01-23T05:00:06.397Z,19.55
2023-01-23T05:02:35.297Z,18.88
2023-01-23T05:05:07.530Z,24.75
2023-01-23T05:07:35.840Z,22.55
2023-01-23T05:10:04.048Z,19.27
2023-01-23T05:12:32.574Z,23.70
2023-01-23T05:15:08.098Z,20.52
2023-01-23T05:17:36.606Z,22.35
2023-01-23T05:20:08.937Z,19.38
2023-01-23T05:22:38.285Z,19.23
2023-01-23T05:25:08.251Z,17.35
2023-01-23T05:27:36.613Z,18.27
2023-01-23T05:30:10.566Z,16.85
2023-01-23T05:36:04.457Z,18.83
2023-01-23T05:38:33.693Z,18.83
2023-01-23T05:41:01.810Z,17.10
2023-01-23T05:43:30.099Z,17.92
2023-01-23T05:46:02.023Z,14.77
2023-01-23T05:48:31.304Z,15.52
2023-01-23T05:50:59.478Z,16.13
2023-01-23T05:53:28.012Z,16.95
2023-01-23T05:55:56.463Z,17.77
2023-01-23T05:58:24.555Z,19.23
2023-01-23T06:00:52.607Z,18.25
2023-01-23T06:03:22.317Z,19.38
2023-01-23T06:05:50.841Z,16.88
2023-01-23T06:08:18.949Z,17.10
2023-01-23T06:10:47.291Z,17.13
2023-01-23T06:13:15.900Z,14.95
2023-01-23T06:15:44.167Z,19.05
2023-01-23T06:18:12.695Z,16.25
2023-01-23T06:20:42.247Z,16.17
2023-01-23T06:23:10.557Z,17.58
2023-01-23T06:25:40.644Z,17.55
2023-01-23T06:28:09.583Z,22.63
2023-01-23T06:30:38.772Z,22.00
2023-01-23T06:33:07.192Z,21.85
2023-01-23T06:35:35.943Z,19.92
2023-01-23T06:38:07.058Z,19.98
2023-01-23T06:40:37.295Z,15.00
2023-01-23T06:43:06.175Z,19.67
2023-01-23T06:45:34.898Z,23.10
2023-01-23T06:48:03.103Z,23.05
2023-01-23T06:50:31.371Z,22.48
2023-01-23T06:53:00.016Z,23.15
2023-01-23T06:55:30.787Z,22.23
2023-01-23T06:57:59.093Z,18.90
2023-01-23T07:00:28.151Z,20.15
2023-01-23T07:02:59.248Z,17.02
2023-01-23T07:05:27.467Z,15.98
2023-01-23T07:07:55.794Z,18.05
2023-01-23T07:10:24.193Z,19.20
2023-01-23T07:12:53.850Z,16.23
2023-01-23T07:15:23.023Z,16.45
2023-01-23T07:17:51.495Z,25.15
2023-01-23T07:20:21.853Z,21.13
2023-01-23T07:22:51.624Z,19.50
2023-01-23T07:25:19.979Z,18.17
2023-01-23T07:27:48.653Z,18.92
2023-01-23T07:30:20.144Z,25.90
2023-01-23T07:32:48.660Z,23.92
2023-01-23T07:35:17.363Z,25.75
2023-01-23T07:37:47.611Z,24.10
2023-01-23T07:40:16.207Z,28.70
2023-01-23T07:42:46.539Z,24.50
2023-01-23T07:45:15.167Z,27.40
2023-01-23T07:47:45.792Z,29.70
2023-01-23T07:50:14.844Z,30.00
2023-01-23T07:52:44.031Z,27.70
2023-01-23T07:55:12.546Z,29.88
2023-01-23T07:57:40.846Z,30.00
2023-01-23T08:00:10.809Z,30.10
2023-01-23T08:02:39.686Z,28.77
2023-01-23T08:05:11.864Z,35.90
2023-01-23T08:07:40.083Z,24.05
2023-01-23T08:10:09.084Z,21.45
2023-01-23T08:12:37.864Z,19.73
2023-01-23T08:15:07.748Z,21.92
2023-01-23T08:17:36.071Z,21.95
2023-01-23T08:20:04.760Z,20.58
2023-01-23T08:22:37.306Z,22.10
2023-01-23T08:25:06.560Z,20.85
2023-01-23T08:27:34.679Z,23.83
2023-01-23T08:30:02.986Z,22.05
2023-01-23T08:32:31.105Z,26.70
2023-01-23T08:34:59.784Z,25.02
2023-01-23T08:37:28.011Z,33.25
2023-01-23T08:40:01.167Z,23.58
2023-01-23T08:42:30.643Z,24.27
2023-01-23T08:44:58.795Z,25.60
2023-01-23T08:47:27.158Z,25.15
2023-01-23T08:49:55.248Z,26.63
2023-01-23T08:52:23.394Z,28.73
2023-01-23T08:54:51.866Z,33.42
2023-01-23T08:57:22.755Z,40.55
2023-01-23T08:59:51.708Z,62.20
2023-01-23T09:02:21.880Z,40.73
2023-01-23T09:04:50.187Z,34.05
2023-01-23T09:07:18.424Z,30.52
2023-01-23T09:09:47.178Z,32.95
2023-01-23T09:12:16.392Z,29.77
2023-01-23T09:14:46.474Z,28.73
2023-01-23T09:17:14.895Z,31.02
2023-01-23T09:19:43.371Z,29.20
2023-01-23T09:22:11.646Z,24.70
2023-01-23T09:24:40.296Z,24.70
2023-01-23T09:27:09.800Z,23.92
2023-01-23T09:29:38.256Z,27.83
2023-01-23T09:32:07.963Z,28.97
2023-01-23T09:34:36.157Z,32.10
2023-01-23T09:37:04.294Z,25.88
2023-01-23T09:39:32.759Z,24.65
2023-01-23T09:42:08.486Z,24.55
2023-01-23T09:44:43.841Z,29.58
2023-01-23T09:47:17.618Z,24.88
2023-01-23T09:49:50.546Z,28.38
2023-01-23T09:52:22.449Z,24.35
2023-01-23T09:54:55.026Z,30.05
2023-01-23T09:57:26.726Z,34.60
2023-01-23T10:00:02.662Z,25.23
2023-01-23T10:02:32.437Z,24.58
2023-01-23T10:05:02.993Z,27.48
2023-01-23T10:07:47.936Z,25.65
2023-01-23T10:10:37.910Z,24.65
2023-01-23T10:13:11.918Z,22.70
2023-01-23T10:16:06.438Z,28.38
2023-01-23T10:18:46.723Z,21.98
2023-01-23T10:21:23.750Z,32.28
2023-01-23T10:24:02.995Z,41.08
2023-01-23T10:26:34.636Z,23.52
2023-01-23T10:29:11.385Z,23.23
2023-01-23T10:31:43.955Z,22.00
2023-01-23T10:34:19.176Z,21.77
2023-01-23T10:37:01.640Z,21.73
2023-01-23T10:39:38.771Z,23.13
2023-01-23T10:42:12.569Z,31.10
2023-01-23T10:44:40.962Z,27.08
2023-01-23T10:47:19.237Z,24.15
2023-01-23T10:49:48.760Z,24.00
2023-01-23T10:52:33.965Z,35.03
2023-01-23T10:55:04.322Z,38.92
2023-01-23T10:57:45.337Z,22.60
2023-01-23T11:00:23.253Z,25.45
2023-01-23T11:02:51.986Z,28.50
2023-01-23T11:05:52.104Z,29.42
2023-01-23T11:08:27.354Z,28.95
2023-01-23T11:10:59.481Z,24.90
2023-01-23T11:13:30.207Z,24.67
2023-01-23T11:15:59.014Z,28.02
2023-01-23T11:18:42.653Z,25.48
2023-01-23T11:21:24.480Z,26.25
2023-01-23T11:24:09.740Z,27.75
2023-01-23T11:26:39.846Z,23.80
2023-01-23T11:29:24.837Z,24.02
2023-01-23T11:31:59.113Z,19.60
2023-01-23T11:34:32.024Z,22.90
2023-01-23T11:37:11.533Z,27.65
2023-01-23T11:39:48.330Z,23.85
2023-01-23T11:42:19.474Z,45.25
2023-01-23T11:44:51.313Z,26.73
2023-01-23T11:47:43.397Z,21.20
2023-01-23T11:50:43.612Z,22.13
2023-01-23T11:53:41.106Z,19.33
2023-01-23T11:56:37.266Z,22.30
2023-01-23T11:59:32.308Z,25.40
2023-01-23T12:02:21.090Z,23.92
2023-01-23T12:05:08.914Z,22.70
2023-01-23T12:07:48.734Z,23.42
2023-01-23T12:10:24.988Z,23.00
2023-01-23T12:13:06.375Z,24.55
2023-01-23T12:15:47.435Z,26.92
2023-01-23T12:18:32.029Z,30.23
2023-01-23T12:21:06.606Z,25.30
2023-01-23T12:23:58.689Z,36.42
2023-01-23T12:26:32.634Z,35.30
2023-01-23T12:29:26.618Z,64.00
2023-01-23T12:32:28.679Z,53.25
2023-01-23T12:35:09.469Z,55.03
2023-01-23T12:38:00.438Z,31.67
2023-01-23T12:40:34.648Z,24.83
2023-01-23T12:43:10.500Z,29.48
2023-01-23T12:45:42.408Z,23.98
2023-01-23T12:48:15.292Z,34.67
2023-01-23T12:50:48.028Z,34.95
2023-01-23T12:53:20.179Z,28.13
2023-01-23T12:55:58.457Z,31.70
2023-01-23T12:58:31.922Z,26.30
2023-01-23T13:01:12.035Z,22.77
2023-01-23T13:04:02.799Z,22.52
2023-01-23T13:07:03.293Z,25.70
2023-01-23T13:09:41.221Z,22.88
2023-01-23T13:12:22.715Z,26.42
2023-01-23T13:17:48.139Z,23.30
2023-01-23T13:20:47.476Z,34.55
2023-01-23T13:23:26.068Z,60.33
2023-01-23T13:26:29.956Z,42.67
2023-01-23T13:29:02.166Z,27.30
2023-01-23T13:31:45.497Z,26.10
2023-01-23T13:34:39.523Z,26.10
2023-01-23T13:37:51.956Z,25.88
2023-01-23T13:40:26.286Z,24.00
2023-01-23T13:42:54.508Z,28.95
2023-01-23T13:45:28.703Z,27.60
2023-01-23T14:20:39.428Z,27.25
2023-01-23T14:23:33.631Z,26.00
2023-01-23T14:26:02.785Z,23.55
2023-01-23T14:28:31.627Z,23.10
2023-01-23T14:31:02.883Z,26.83
2023-01-23T14:33:41.905Z,24.88
2023-01-23T14:36:16.993Z,26.45
2023-01-23T14:38:50.744Z,28.77
2023-01-23T14:41:22.845Z,24.65
2023-01-23T14:43:59.480Z,30.08
2023-01-23T14:46:40.095Z,43.15
2023-01-23T14:49:10.397Z,36.78
2023-01-23T14:51:38.649Z,31.50
2023-01-23T14:54:22.761Z,28.30
2023-01-23T14:56:52.102Z,34.45
2023-01-23T14:59:27.994Z,42.85
2023-01-23T15:01:56.964Z,34.78
2023-01-23T15:04:27.936Z,31.25
2023-01-23T15:06:58.552Z,29.27
2023-01-23T15:09:31.939Z,28.23
2023-01-23T15:12:06.120Z,28.40
2023-01-23T15:14:38.179Z,29.58
2023-01-23T15:17:08.093Z,27.52
2023-01-23T15:19:38.524Z,31.52
2023-01-23T15:22:09.892Z,24.52
2023-01-23T15:24:39.531Z,28.90
2023-01-23T15:27:24.767Z,27.95
2023-01-23T15:29:54.178Z,28.88
2023-01-23T15:32:26.254Z,27.27
2023-01-23T15:34:57.646Z,27.70
2023-01-23T15:37:27.205Z,29.67
2023-01-23T15:40:02.075Z,31.08
2023-01-23T15:42:32.864Z,27.25
2023-01-23T15:45:02.166Z,32.17
2023-01-23T15:47:31.623Z,30.05
2023-01-23T15:50:01.609Z,29.50
2023-01-23T15:52:31.842Z,30.23
2023-01-23T15:55:04.221Z,31.15
2023-01-23T15:57:32.572Z,30.67
2023-01-23T16:00:01.397Z,29.50
2023-01-23T16:02:32.364Z,29.15
2023-01-23T16:05:02.140Z,30.65
2023-01-23T16:07:34.583Z,30.95
2023-01-23T16:10:17.018Z,34.53
2023-01-23T16:12:46.920Z,28.37
2023-01-23T16:15:16.992Z,32.47
2023-01-23T16:17:46.137Z,30.92
2023-01-23T16:20:15.957Z,35.93
2023-01-23T16:22:44.903Z,40.70
2023-01-23T16:25:20.796Z,35.47
2023-01-23T16:27:50.271Z,33.20
2023-01-23T16:30:19.370Z,31.42
2023-01-23T16:32:48.960Z,33.40
2023-01-23T16:35:20.741Z,29.50
2023-01-23T16:37:51.060Z,32.23
2023-01-23T16:40:25.707Z,33.40
2023-01-23T16:42:55.921Z,37.28
2023-01-23T16:45:25.874Z,32.80
2023-01-23T16:47:54.986Z,38.03
2023-01-23T16:50:28.095Z,32.45
2023-01-23T16:53:02.829Z,37.27
2023-01-23T16:55:36.778Z,34.50
2023-01-23T16:58:07.653Z,32.47
2023-01-23T17:00:37.193Z,33.97
2023-01-23T17:03:09.459Z,30.97
2023-01-23T17:05:38.392Z,34.93
2023-01-23T17:08:18.362Z,31.97
2023-01-23T17:10:51.131Z,30.50
2023-01-23T17:13:20.776Z,34.27
2023-01-23T17:15:50.024Z,33.60
2023-01-23T17:18:24.064Z,34.63
2023-01-23T17:20:54.209Z,32.15
2023-01-23T17:23:23.887Z,31.67
2023-01-23T17:26:00.841Z,29.05
2023-01-23T17:28:30.370Z,28.70
2023-01-23T17:31:01.381Z,28.93
2023-01-23T17:33:33.203Z,30.50
2023-01-23T17:36:04.588Z,32.87
2023-01-23T17:38:34.652Z,34.10
2023-01-23T17:41:06.584Z,31.03
2023-01-23T17:43:35.860Z,32.90
2023-01-23T17:46:06.401Z,28.70
2023-01-23T17:48:40.420Z,31.55
2023-01-23T17:51:18.470Z,32.83
2023-01-23T17:53:50.427Z,29.95
2023-01-23T17:56:21.281Z,26.95
2023-01-23T17:58:49.532Z,27.13
2023-01-23T18:01:23.992Z,31.97
2023-01-23T18:03:53.677Z,27.70
2023-01-23T18:06:22.052Z,24.52
2023-01-23T18:08:50.532Z,27.05
2023-01-23T18:11:22.099Z,25.60
2023-01-23T18:14:09.937Z,27.23
2023-01-23T18:16:42.606Z,25.90
2023-01-23T18:19:17.895Z,22.02
2023-01-23T18:21:48.666Z,22.98
2023-01-23T18:24:24.206Z,23.23
2023-01-23T18:26:59.703Z,26.35
2023-01-23T18:29:44.231Z,24.52
2023-01-23T18:32:42.996Z,24.70
2023-01-23T18:35:25.901Z,22.38
2023-01-23T18:38:04.384Z,26.88
2023-01-23T18:40:40.396Z,22.92
2023-01-23T18:43:34.351Z,25.30
2023-01-23T18:46:03.834Z,24.15
2023-01-23T18:48:32.921Z,22.17
2023-01-23T18:51:14.544Z,21.40
2023-01-23T18:53:53.466Z,24.58
2023-01-23T18:56:31.716Z,23.55
2023-01-23T18:59:15.216Z,24.17
2023-01-23T19:01:53.244Z,25.00
2023-01-23T19:04:30.586Z,23.63
2023-01-23T19:07:00.017Z,27.23
2023-01-23T19:09:32.855Z,23.80
2023-01-23T19:12:24.865Z,22.90
2023-01-23T19:15:16.266Z,21.60
2023-01-23T19:17:49.634Z,23.67
2023-01-23T19:20:27.751Z,22.50
2023-01-23T19:23:04.497Z,23.50
2023-01-23T19:25:32.996Z,22.30
2023-01-23T19:28:02.306Z,22.15
2023-01-23T19:30:33.461Z,22.35
2023-01-23T19:33:02.078Z,21.45
2023-01-23T19:35:30.340Z,20.40
2023-01-23T19:38:00.282Z,20.17
2023-01-23T19:40:28.990Z,18.25
2023-01-23T19:43:12.777Z,19.05
2023-01-23T19:45:47.327Z,21.03
2023-01-23T19:48:15.513Z,21.47
2023-01-23T19:50:44.795Z,20.88
2023-01-23T19:53:14.506Z,16.25
2023-01-23T19:55:42.789Z,15.00
2023-01-23T19:58:13.404Z,16.80
2023-01-23T20:00:43.145Z,16.52
2023-01-23T20:03:14.585Z,16.93
2023-01-23T20:05:43.124Z,15.80
2023-01-23T20:08:11.813Z,15.65
2023-01-23T20:10:40.068Z,16.43
2023-01-23T20:13:08.765Z,12.85
2023-01-23T20:15:37.579Z,12.60
2023-01-23T20:18:07.277Z,15.68
2023-01-23T20:20:38.383Z,14.10
2023-01-23T20:23:06.640Z,15.43
2023-01-23T20:25:35.749Z,13.60
2023-01-23T20:28:03.865Z,15.18
2023-01-23T20:30:33.163Z,14.73
2023-01-23T20:33:05.462Z,14.13
2023-01-23T20:35:38.366Z,11.25
2023-01-23T20:38:06.638Z,11.80
2023-01-23T20:40:34.746Z,9.93
2023-01-23T20:43:03.321Z,11.27
2023-01-23T20:45:31.965Z,9.02
2023-01-23T20:48:00.152Z,9.40
2023-01-23T20:50:28.348Z,10.45
2023-01-23T20:53:16.235Z,9.63
2023-01-23T20:55:44.731Z,9.18
2023-01-23T20:58:30.127Z,8.02
2023-01-23T21:00:59.666Z,10.82
2023-01-23T21:03:28.670Z,9.90
2023-01-23T21:05:57.501Z,11.90
2023-01-23T21:08:27.197Z,12.07
2023-01-23T21:10:58.868Z,8.88
2023-01-23T21:13:27.628Z,8.77
2023-01-23T21:16:01.387Z,9.40
2023-01-23T21:18:29.880Z,9.85
2023-01-23T21:21:04.235Z,9.63
2023-01-23T21:23:37.728Z,9.57
2023-01-23T21:26:06.946Z,10.95
2023-01-23T21:28:38.366Z,9.95
2023-01-23T21:31:10.850Z,10.38
2023-01-23T21:33:40.479Z,10.00
2023-01-23T21:36:09.444Z,11.02
2023-01-23T21:38:38.971Z,10.80
2023-01-23T21:41:07.611Z,9.32
2023-01-23T21:43:36.476Z,10.73
2023-01-23T21:46:05.791Z,11.05
2023-01-23T21:48:35.151Z,10.35
2023-01-23T21:51:07.996Z,13.27
2023-01-23T21:53:39.305Z,10.25
2023-01-23T21:56:08.827Z,10.35
2023-01-23T21:58:37.499Z,8.85
2023-01-23T22:01:24.745Z,11.88
2023-01-23T22:03:56.003Z,9.65
2023-01-23T22:06:24.354Z,15.18
2023-01-23T22:08:54.682Z,12.80
2023-01-23T22:11:25.989Z,8.52
2023-01-23T22:13:58.265Z,10.43
2023-01-23T22:16:46.410Z,8.87
2023-01-23T22:19:16.366Z,11.23
2023-01-23T22:21:46.651Z,11.37
2023-01-23T22:24:17.225Z,9.65
2023-01-23T22:26:45.978Z,10.63
2023-01-23T22:29:15.317Z,8.43
2023-01-23T22:31:43.858Z,8.70
2023-01-23T22:34:14.049Z,10.75
2023-01-23T22:36:42.309Z,10.48
2023-01-23T22:39:13.040Z,8.43
2023-01-23T22:41:42.615Z,12.50
2023-01-23T22:44:12.641Z,11.45
2023-01-23T22:46:44.019Z,11.23
2023-01-23T22:49:12.425Z,9.27
2023-01-23T22:51:42.153Z,8.38
2023-01-23T22:54:10.278Z,8.33
2023-01-23T22:56:39.003Z,10.57
2023-01-23T22:59:08.930Z,12.73
2023-01-23T23:01:44.215Z,9.45
2023-01-23T23:04:12.333Z,10.02
2023-01-23T23:06:40.459Z,9.45
2023-01-23T23:09:10.598Z,10.63
2023-01-23T23:11:40.632Z,9.48
2023-01-23T23:14:11.568Z,9.50
2023-01-23T23:16:41.992Z,9.05
2023-01-23T23:19:11.198Z,9.90
2023-01-23T23:21:43.007Z,9.90
2023-01-23T23:24:14.185Z,10.57
2023-01-23T23:26:42.753Z,9.10
2023-01-23T23:29:12.785Z,9.27
2023-01-23T23:31:41.058Z,10.35
2023-01-23T23:34:09.833Z,10.80
2023-01-23T23:36:38.676Z,11.50
2023-01-23T23:39:06.851Z,9.75
2023-01-23T23:41:35.531Z,9.65
2023-01-23T23:44:04.472Z,10.90
2023-01-23T23:46:34.361Z,11.35
2023-01-23T23:49:02.780Z,10.38
2023-01-23T23:51:31.281Z,10.13
2023-01-23T23:54:00.096Z,10.07
2023-01-23T23:56:32.075Z,11.32
2023-01-23T23:59:00.495Z,9.35
